Time;durP1;ratioP1;P1;durP2;ratioP2;P2;SDS_P1;SDS_P2;PMS_P1;PMS_P2;Temp;Humidity;BMP_temperature;BMP_pressure;BME280_temperature;BME280_humidity;BME280_pressure;Samples;Min_cycle;Max_cycle;Signal;HPM_P1;HPM_P2
2021/10/12 00:02:26;;;;;;;4.85;2.95;;;;;;;;;;143732;589;46012;-86
2021/10/12 00:04:53;;;;;;;5.18;3.22;;;;;;;;;;143731;573;46015;-87
2021/10/12 00:07:19;;;;;;;8.27;3.03;;;;;;;;;;143730;583;46023;-87
2021/10/12 00:09:46;;;;;;;2.85;2.28;;;;;;;;;;143734;569;46018;-87
2021/10/12 00:12:13;;;;;;;3.97;2.20;;;;;;;;;;143734;575;46012;-86
2021/10/12 00:14:39;;;;;;;5.62;2.00;;;;;;;;;;143732;667;47021;-86
2021/10/12 00:17:07;;;;;;;7.95;2.22;;;;;;;;;;143733;602;46022;-86
2021/10/12 00:19:34;;;;;;;4.97;2.33;;;;;;;;;;143724;589;46019;-85
2021/10/12 00:22:00;;;;;;;3.85;1.70;;;;;;;;;;143735;591;46012;-87
2021/10/12 00:24:30;;;;;;;7.12;1.98;;;;;;;;;;143732;644;46018;-86
2021/10/12 00:26:57;;;;;;;5.47;2.08;;;;;;;;;;143731;572;46013;-86
2021/10/12 00:29:23;;;;;;;3.50;1.67;;;;;;;;;;143732;629;46014;-86
2021/10/12 00:31:50;;;;;;;3.67;1.60;;;;;;;;;;143731;586;46012;-87
2021/10/12 00:34:18;;;;;;;6.53;1.73;;;;;;;;;;143733;602;46020;-88
2021/10/12 00:36:46;;;;;;;11.27;1.90;;;;;;;;;;143731;580;46013;-86
2021/10/12 00:39:13;;;;;;;7.90;1.90;;;;;;;;;;143728;582;46018;-86
2021/10/12 00:41:40;;;;;;;12.18;2.53;;;;;;;;;;143730;605;46022;-87
2021/10/12 00:44:09;;;;;;;7.10;1.90;;;;;;;;;;143724;609;47021;-84
2021/10/12 00:46:37;;;;;;;2.58;1.83;;;;;;;;;;143731;583;46012;-84
2021/10/12 00:49:04;;;;;;;5.35;1.75;;;;;;;;;;143731;580;46018;-85
2021/10/12 00:51:31;;;;;;;6.55;2.15;;;;;;;;;;143734;564;46013;-85
2021/10/12 00:53:57;;;;;;;5.82;2.17;;;;;;;;;;143731;569;46014;-83
2021/10/12 00:56:24;;;;;;;14.60;2.67;;;;;;;;;;143731;582;46012;-85
2021/10/12 00:58:55;;;;;;;5.55;2.30;;;;;;;;;;143730;573;46019;-85
2021/10/12 01:01:22;;;;;;;2.90;1.60;;;;;;;;;;143732;589;47022;-86
2021/10/12 01:03:49;;;;;;;4.12;1.87;;;;;;;;;;143726;607;47020;-86
2021/10/12 01:06:15;;;;;;;3.80;1.80;;;;;;;;;;143731;632;46918;-86
2021/10/12 01:08:42;;;;;;;9.02;2.05;;;;;;;;;;143726;596;46018;-86
2021/10/12 01:11:13;;;;;;;9.23;2.25;;;;;;;;;;143733;601;46013;-88
2021/10/12 01:13:54;;;;;;;3.78;2.08;;;;;;;;;;143725;566;47021;-86
2021/10/12 01:16:32;;;;;;;7.57;2.17;;;;;;;;;;143731;600;46012;-87
2021/10/12 01:19:16;;;;;;;;;;;;;;;;;;;;;
2021/10/12 01:21:45;;;;;;;4.20;2.25;;;;;;;;;;143732;596;46025;-87
2021/10/12 01:24:13;;;;;;;5.30;2.28;;;;;;;;;;143730;586;47020;-86
2021/10/12 01:26:44;;;;;;;4.45;2.50;;;;;;;;;;143730;687;46013;-88
2021/10/12 01:29:21;;;;;;;8.55;2.92;;;;;;;;;;143731;652;46019;-86
2021/10/12 01:31:47;;;;;;;4.28;2.22;;;;;;;;;;143732;579;46012;-86
2021/10/12 01:34:18;;;;;;;6.30;2.95;;;;;;;;;;143725;607;47020;-87
2021/10/12 01:36:45;;;;;;;6.72;3.28;;;;;;;;;;143733;574;46012;-85
2021/10/12 01:39:12;;;;;;;4.57;3.10;;;;;;;;;;143732;564;46018;-87
2021/10/12 01:41:40;;;;;;;13.20;3.53;;;;;;;;;;143732;624;46013;-89
2021/10/12 01:44:14;;;;;;;5.25;3.05;;;;;;;;;;143731;619;46048;-86
2021/10/12 01:46:41;;;;;;;5.78;3.20;;;;;;;;;;143730;569;46022;-86
2021/10/12 01:49:09;;;;;;;8.63;2.95;;;;;;;;;;143730;607;46018;-88
2021/10/12 01:51:36;;;;;;;6.65;2.62;;;;;;;;;;143733;566;46013;-87
2021/10/12 01:54:13;;;;;;;4.85;2.87;;;;;;;;;;143732;554;46020;-86
2021/10/12 01:56:40;;;;;;;3.60;2.53;;;;;;;;;;143730;654;46013;-87
2021/10/12 01:59:07;;;;;;;7.75;2.37;;;;;;;;;;143727;597;46014;-87
2021/10/12 02:01:34;;;;;;;6.35;2.95;;;;;;;;;;143733;564;46022;-86
2021/10/12 02:04:01;;;;;;;9.40;2.58;;;;;;;;;;143732;587;46020;-86
2021/10/12 02:06:28;;;;;;;5.03;2.90;;;;;;;;;;143733;612;46918;-85
2021/10/12 02:08:56;;;;;;;2.83;1.87;;;;;;;;;;143731;580;46018;-86
2021/10/12 02:11:22;;;;;;;6.07;2.28;;;;;;;;;;143733;582;46022;-86
2021/10/12 02:13:49;;;;;;;7.82;2.00;;;;;;;;;;143730;583;46021;-86
2021/10/12 02:16:16;;;;;;;8.55;1.98;;;;;;;;;;143733;567;46917;-86
2021/10/12 02:18:42;;;;;;;5.97;1.90;;;;;;;;;;143727;596;46019;-85
2021/10/12 02:21:10;;;;;;;5.75;1.73;;;;;;;;;;143734;582;46012;-86
2021/10/12 02:23:37;;;;;;;3.97;1.67;;;;;;;;;;143727;581;46020;-86
2021/10/12 02:26:04;;;;;;;7.22;1.70;;;;;;;;;;143729;596;47012;-87
2021/10/12 02:28:39;;;;;;;7.62;1.50;;;;;;;;;;143731;693;46019;-88
2021/10/12 02:31:07;;;;;;;6.78;1.37;;;;;;;;;;143730;567;47022;-87
2021/10/12 02:33:33;;;;;;;4.57;1.20;;;;;;;;;;143729;613;46020;-87
2021/10/12 02:36:00;;;;;;;9.93;1.42;;;;;;;;;;143731;578;47012;-86
2021/10/12 02:38:27;;;;;;;4.80;1.50;;;;;;;;;;143728;577;46018;-86
2021/10/12 02:40:53;;;;;;;5.65;1.85;;;;;;;;;;143733;570;46013;-87
2021/10/12 02:43:21;;;;;;;3.97;1.60;;;;;;;;;;143731;580;46021;-88
2021/10/12 02:45:47;;;;;;;5.53;1.33;;;;;;;;;;143731;590;46012;-86
2021/10/12 02:48:16;;;;;;;3.58;1.73;;;;;;;;;;143725;564;46018;-87
2021/10/12 02:50:43;;;;;;;6.43;2.53;;;;;;;;;;143732;581;46013;-87
2021/10/12 02:53:11;;;;;;;11.30;3.72;;;;;;;;;;143726;569;47020;-85
2021/10/12 02:55:39;;;;;;;11.85;4.57;;;;;;;;;;143731;687;46012;-86
2021/10/12 02:58:06;;;;;;;5.45;3.67;;;;;;;;;;143732;680;46019;-86
2021/10/12 03:00:34;;;;;;;10.40;4.50;;;;;;;;;;143731;606;46012;-88
2021/10/12 03:03:01;;;;;;;14.35;4.20;;;;;;;;;;143730;580;47020;-87
2021/10/12 03:05:27;;;;;;;8.48;2.83;;;;;;;;;;143731;569;46014;-87
2021/10/12 03:07:54;;;;;;;7.50;2.70;;;;;;;;;;143730;633;47018;-86
2021/10/12 03:10:25;;;;;;;9.40;2.55;;;;;;;;;;143730;570;46013;-88
2021/10/12 03:12:52;;;;;;;10.32;2.92;;;;;;;;;;143728;564;46014;-87
2021/10/12 03:15:21;;;;;;;8.88;3.10;;;;;;;;;;143731;587;46012;-88
2021/10/12 03:17:49;;;;;;;8.27;3.28;;;;;;;;;;143733;670;46018;-88
2021/10/12 03:20:18;;;;;;;5.70;2.83;;;;;;;;;;143733;655;46012;-90
2021/10/12 03:22:47;;;;;;;8.77;2.83;;;;;;;;;;143728;578;46020;-92
2021/10/12 03:25:13;;;;;;;8.65;3.25;;;;;;;;;;143730;574;47022;-91
2021/10/12 03:27:40;;;;;;;9.60;2.78;;;;;;;;;;143728;588;46019;-90
2021/10/12 03:30:08;;;;;;;6.30;2.33;;;;;;;;;;143730;588;46021;-89
2021/10/12 03:32:35;;;;;;;10.38;2.97;;;;;;;;;;143729;570;47020;-90
2021/10/12 03:35:01;;;;;;;11.55;2.55;;;;;;;;;;143726;608;46013;-89
2021/10/12 03:37:28;;;;;;;8.15;2.83;;;;;;;;;;143723;598;46018;-89
2021/10/12 03:39:55;;;;;;;4.62;2.50;;;;;;;;;;143730;601;46012;-89
2021/10/12 03:42:21;;;;;;;4.55;2.28;;;;;;;;;;143727;696;46043;-89
2021/10/12 03:44:51;;;;;;;5.22;2.10;;;;;;;;;;143729;589;46012;-89
2021/10/12 03:47:20;;;;;;;5.97;2.83;;;;;;;;;;143730;609;46018;-89
2021/10/12 03:49:47;;;;;;;4.72;2.42;;;;;;;;;;143729;609;46023;-91
2021/10/12 03:52:14;;;;;;;5.10;2.70;;;;;;;;;;143725;598;47020;-91
2021/10/12 03:54:40;;;;;;;7.30;2.78;;;;;;;;;;143729;566;46022;-91
2021/10/12 03:57:10;;;;;;;9.18;3.00;;;;;;;;;;143730;589;46019;-89
2021/10/12 03:59:36;;;;;;;4.10;2.20;;;;;;;;;;143731;678;46022;-91
2021/10/12 04:02:04;;;;;;;7.00;2.60;;;;;;;;;;143722;597;46020;-91
2021/10/12 04:04:31;;;;;;;8.30;2.62;;;;;;;;;;143727;605;46013;-90
2021/10/12 04:06:58;;;;;;;8.80;2.08;;;;;;;;;;143728;579;46018;-88
2021/10/12 04:09:24;;;;;;;5.82;2.92;;;;;;;;;;143731;577;46022;-92
2021/10/12 04:11:51;;;;;;;5.55;2.53;;;;;;;;;;143726;577;46021;-90
2021/10/12 04:14:18;;;;;;;4.78;2.10;;;;;;;;;;143729;569;46012;-90
2021/10/12 04:16:45;;;;;;;6.65;2.40;;;;;;;;;;143722;585;47018;-90
2021/10/12 04:19:11;;;;;;;7.03;2.50;;;;;;;;;;143734;582;46020;-91
2021/10/12 04:21:39;;;;;;;5.65;2.72;;;;;;;;;;143729;591;46020;-90
2021/10/12 04:24:06;;;;;;;8.65;2.03;;;;;;;;;;143728;708;46022;-89
2021/10/12 04:26:32;;;;;;;7.82;2.65;;;;;;;;;;143727;609;46019;-90
2021/10/12 04:28:59;;;;;;;3.35;2.70;;;;;;;;;;143728;587;47012;-90
2021/10/12 04:31:27;;;;;;;3.67;1.83;;;;;;;;;;143728;590;46043;-90
2021/10/12 04:33:54;;;;;;;3.80;2.00;;;;;;;;;;143729;592;46013;-89
2021/10/12 04:36:21;;;;;;;3.55;1.73;;;;;;;;;;143728;572;46037;-88
2021/10/12 04:38:47;;;;;;;2.50;1.70;;;;;;;;;;143727;640;46012;-88
2021/10/12 04:41:14;;;;;;;3.70;1.90;;;;;;;;;;143732;576;46019;-88
2021/10/12 04:43:41;;;;;;;3.60;2.03;;;;;;;;;;143729;680;46031;-89
2021/10/12 04:46:08;;;;;;;2.87;1.70;;;;;;;;;;143731;570;46018;-89
2021/10/12 04:48:35;;;;;;;6.43;1.87;;;;;;;;;;143733;585;46021;-87
2021/10/12 04:51:01;;;;;;;4.43;1.90;;;;;;;;;;143724;593;46042;-89
2021/10/12 04:53:28;;;;;;;12.95;3.40;;;;;;;;;;143728;599;46022;-88
2021/10/12 04:55:55;;;;;;;5.93;2.33;;;;;;;;;;143727;599;46019;-88
2021/10/12 04:58:22;;;;;;;2.80;2.08;;;;;;;;;;143731;572;46020;-84
2021/10/12 05:00:49;;;;;;;5.22;2.17;;;;;;;;;;143729;574;46020;-89
2021/10/12 05:03:15;;;;;;;6.80;2.20;;;;;;;;;;143731;572;46012;-87
2021/10/12 05:05:42;;;;;;;7.07;2.33;;;;;;;;;;143732;580;46018;-88
2021/10/12 05:08:10;;;;;;;6.12;2.75;;;;;;;;;;143730;569;46022;-87
2021/10/12 05:10:37;;;;;;;6.85;2.80;;;;;;;;;;143728;738;47020;-87
2021/10/12 05:13:07;;;;;;;3.83;2.67;;;;;;;;;;143729;585;46052;-88
2021/10/12 05:15:35;;;;;;;3.00;2.30;;;;;;;;;;143723;565;46018;-86
2021/10/12 05:18:09;;;;;;;4.90;2.50;;;;;;;;;;143730;570;46013;-89
2021/10/12 05:20:36;;;;;;;2.83;2.37;;;;;;;;;;143727;616;47021;-86
2021/10/12 05:23:04;;;;;;;4.53;2.20;;;;;;;;;;143732;589;46053;-90
2021/10/12 05:25:32;;;;;;;3.40;2.33;;;;;;;;;;143730;594;46019;-87
2021/10/12 05:27:58;;;;;;;4.85;2.47;;;;;;;;;;143729;587;46012;-88
2021/10/12 05:30:26;;;;;;;6.62;2.30;;;;;;;;;;143729;599;47020;-87
2021/10/12 05:32:53;;;;;;;3.42;2.62;;;;;;;;;;143728;593;46012;-86
2021/10/12 05:35:19;;;;;;;8.10;3.50;;;;;;;;;;143731;571;46018;-89
2021/10/12 05:37:46;;;;;;;12.23;5.12;;;;;;;;;;143732;648;46014;-87
2021/10/12 05:40:17;;;;;;;8.55;3.42;;;;;;;;;;143726;688;46020;-87
2021/10/12 05:42:47;;;;;;;5.40;3.20;;;;;;;;;;143731;595;46014;-87
2021/10/12 05:45:13;;;;;;;8.90;3.12;;;;;;;;;;143728;593;46018;-88
2021/10/12 05:47:41;;;;;;;10.60;3.58;;;;;;;;;;143731;587;46021;-87
2021/10/12 05:50:08;;;;;;;5.62;2.92;;;;;;;;;;143727;588;47021;-89
2021/10/12 05:52:37;;;;;;;9.18;4.93;;;;;;;;;;143730;610;46012;-87
2021/10/12 05:55:12;;;;;;;7.45;4.40;;;;;;;;;;143726;693;47012;-86
2021/10/12 06:00:28;;;;;;;5.55;3.70;;;;;;;;;;143732;593;46022;-87
2021/10/12 06:02:55;;;;;;;7.70;2.85;;;;;;;;;;143730;679;46013;-86
2021/10/12 06:05:22;;;;;;;6.68;3.17;;;;;;;;;;143727;572;46014;-87
2021/10/12 06:07:49;;;;;;;4.35;3.40;;;;;;;;;;143732;591;46021;-88
2021/10/12 06:10:15;;;;;;;4.37;3.83;;;;;;;;;;143726;600;47020;-88
2021/10/12 06:12:42;;;;;;;6.93;3.70;;;;;;;;;;143730;557;46012;-87
2021/10/12 06:15:10;;;;;;;6.68;3.28;;;;;;;;;;143725;565;46018;-88
2021/10/12 06:17:36;;;;;;;9.10;3.45;;;;;;;;;;143732;580;46013;-86
2021/10/12 06:20:03;;;;;;;7.05;3.22;;;;;;;;;;143728;571;47018;-85
2021/10/12 06:22:31;;;;;;;4.53;3.12;;;;;;;;;;143730;616;46014;-86
2021/10/12 06:24:58;;;;;;;4.37;3.35;;;;;;;;;;143726;608;46019;-86
2021/10/12 06:27:25;;;;;;;3.17;2.70;;;;;;;;;;143730;593;46020;-86
2021/10/12 06:29:51;;;;;;;4.62;3.20;;;;;;;;;;143724;605;46018;-86
2021/10/12 06:32:18;;;;;;;3.17;2.40;;;;;;;;;;143731;577;46012;-85
2021/10/12 06:34:45;;;;;;;2.75;2.20;;;;;;;;;;143730;602;46018;-85
2021/10/12 06:37:12;;;;;;;3.60;2.33;;;;;;;;;;143728;603;46020;-86
2021/10/12 06:39:38;;;;;;;3.42;2.20;;;;;;;;;;143731;647;46020;-88
2021/10/12 06:42:05;;;;;;;12.63;3.30;;;;;;;;;;143729;701;46012;-85
2021/10/12 06:44:34;;;;;;;5.20;3.03;;;;;;;;;;143727;607;46018;-85
2021/10/12 06:47:00;;;;;;;4.35;2.92;;;;;;;;;;143729;639;46023;-86
2021/10/12 06:49:28;;;;;;;5.53;2.62;;;;;;;;;;143733;576;46021;-87
2021/10/12 06:52:23;;;;;;;4.30;2.78;;;;;;;;;;143728;579;46022;-87
2021/10/12 06:54:50;;;;;;;6.78;2.70;;;;;;;;;;143723;571;46019;-87
2021/10/12 06:57:17;;;;;;;4.12;2.08;;;;;;;;;;143732;681;46020;-86
2021/10/12 06:59:44;;;;;;;3.95;2.08;;;;;;;;;;143726;571;47018;-86
2021/10/12 07:02:14;;;;;;;4.28;1.67;;;;;;;;;;143728;571;46013;-87
2021/10/12 07:04:40;;;;;;;5.22;1.90;;;;;;;;;;143728;579;46018;-87
2021/10/12 07:07:07;;;;;;;3.22;1.05;;;;;;;;;;143727;574;46022;-87
2021/10/12 07:09:34;;;;;;;7.00;1.33;;;;;;;;;;143726;594;47020;-91
2021/10/12 07:12:01;;;;;;;1.70;1.25;;;;;;;;;;143727;577;46012;-91
2021/10/12 07:14:31;;;;;;;4.95;1.77;;;;;;;;;;143730;606;46018;-91
2021/10/12 07:16:58;;;;;;;3.92;2.50;;;;;;;;;;143731;632;46013;-91
2021/10/12 07:19:26;;;;;;;4.15;2.67;;;;;;;;;;143720;564;46021;-89
2021/10/12 07:21:54;;;;;;;4.25;1.40;;;;;;;;;;143727;656;46012;-91
2021/10/12 07:24:22;;;;;;;6.65;1.85;;;;;;;;;;143729;600;47019;-91
2021/10/12 07:26:49;;;;;;;5.07;1.60;;;;;;;;;;143730;669;46012;-91
2021/10/12 07:29:16;;;;;;;5.75;1.55;;;;;;;;;;143729;572;46020;-91
2021/10/12 07:31:43;;;;;;;2.33;1.15;;;;;;;;;;143727;595;46013;-88
2021/10/12 07:34:10;;;;;;;1.85;1.55;;;;;;;;;;143727;644;46019;-88
2021/10/12 07:36:37;;;;;;;7.60;1.77;;;;;;;;;;143726;569;47012;-89
2021/10/12 07:39:06;;;;;;;4.07;1.83;;;;;;;;;;143727;637;47020;-88
2021/10/12 07:41:33;;;;;;;6.40;1.65;;;;;;;;;;143730;586;46022;-89
2021/10/12 07:44:01;;;;;;;6.62;2.10;;;;;;;;;;143721;574;47018;-89
2021/10/12 07:46:28;;;;;;;5.18;2.42;;;;;;;;;;143730;588;46021;-88
2021/10/12 07:48:58;;;;;;;6.97;1.90;;;;;;;;;;143726;570;46021;-89
2021/10/12 07:51:25;;;;;;;8.30;1.65;;;;;;;;;;143729;585;46012;-88
2021/10/12 07:53:55;;;;;;;4.45;1.52;;;;;;;;;;143730;650;46018;-88
2021/10/12 07:56:37;;;;;;;1.52;1.20;;;;;;;;;;143731;613;46012;-87
2021/10/12 07:59:05;;;;;;;2.95;1.15;;;;;;;;;;143727;592;47020;-90
2021/10/12 08:01:35;;;;;;;3.42;1.30;;;;;;;;;;143730;566;46012;-88
2021/10/12 08:04:04;;;;;;;7.68;1.40;;;;;;;;;;143731;580;46018;-88
2021/10/12 08:06:32;;;;;;;4.30;1.00;;;;;;;;;;143731;747;46020;-88
2021/10/12 08:08:59;;;;;;;7.03;1.80;;;;;;;;;;143727;681;46019;-88
2021/10/12 08:11:27;;;;;;;2.28;0.85;;;;;;;;;;143731;566;46012;-89
2021/10/12 08:13:59;;;;;;;2.58;0.77;;;;;;;;;;143732;592;45018;-89
2021/10/12 08:16:32;;;;;;;3.75;1.10;;;;;;;;;;143730;603;46021;-90
2021/10/12 08:19:38;;;;;;;2.45;0.90;;;;;;;;;;143731;577;46021;-89
2021/10/12 08:22:05;;;;;;;3.58;0.90;;;;;;;;;;143730;627;46022;-89
2021/10/12 08:24:32;;;;;;;7.25;1.85;;;;;;;;;;143727;581;46019;-88
2021/10/12 08:27:18;;;;;;;2.05;1.20;;;;;;;;;;143733;569;46012;-91
2021/10/12 08:30:03;;;;;;;15.98;1.45;;;;;;;;;;143727;613;46018;-87
2021/10/12 08:32:35;;;;;;;4.18;0.95;;;;;;;;;;143727;591;46023;-87
2021/10/12 08:35:07;;;;;;;10.60;1.42;;;;;;;;;;143725;628;46018;-86
2021/10/12 08:37:38;;;;;;;5.15;1.27;;;;;;;;;;143733;566;46012;-87
2021/10/12 08:40:16;;;;;;;10.00;1.62;;;;;;;;;;143726;571;47020;-89
2021/10/12 08:42:51;;;;;;;4.97;1.05;;;;;;;;;;143730;579;46012;-87
2021/10/12 08:45:20;;;;;;;1.10;0.60;;;;;;;;;;143730;611;46018;-87
2021/10/12 08:47:48;;;;;;;1.30;0.68;;;;;;;;;;143732;620;46023;-89
2021/10/12 08:50:22;;;;;;;0.93;0.52;;;;;;;;;;143727;606;46027;-87
2021/10/12 08:52:49;;;;;;;2.05;0.60;;;;;;;;;;143728;595;46012;-86
2021/10/12 08:55:16;;;;;;;1.58;0.70;;;;;;;;;;143728;593;46019;-87
2021/10/12 08:57:45;;;;;;;1.08;0.50;;;;;;;;;;143729;580;46012;-84
2021/10/12 09:00:19;;;;;;;1.30;0.50;;;;;;;;;;143727;601;46014;-87
2021/10/12 09:06:09;;;;;;;3.15;1.17;;;;;;;;;;143729;579;46018;-87
2021/10/12 09:08:40;;;;;;;1.02;0.70;;;;;;;;;;143731;574;46020;-85
2021/10/12 09:11:22;;;;;;;5.90;1.08;;;;;;;;;;143728;622;47021;-85
2021/10/12 09:13:50;;;;;;;2.08;0.50;;;;;;;;;;143729;597;46012;-86
2021/10/12 09:16:21;;;;;;;0.50;0.40;;;;;;;;;;143729;637;46019;-87
2021/10/12 09:18:52;;;;;;;1.20;0.50;;;;;;;;;;143730;570;46014;-89
2021/10/12 09:21:27;;;;;;;3.42;0.43;;;;;;;;;;143731;569;46018;-85
2021/10/12 09:24:11;;;;;;;0.75;0.32;;;;;;;;;;143729;577;46013;-85
2021/10/12 09:26:50;;;;;;;1.83;0.55;;;;;;;;;;143722;570;46018;-83
2021/10/12 09:29:33;;;;;;;0.73;0.40;;;;;;;;;;143732;571;46012;-83
2021/10/12 09:32:00;;;;;;;0.80;0.40;;;;;;;;;;143722;582;47020;-85
2021/10/12 09:34:30;;;;;;;2.22;0.30;;;;;;;;;;143725;611;46012;-86
2021/10/12 09:36:58;;;;;;;0.50;0.43;;;;;;;;;;143726;592;47018;-86
2021/10/12 09:39:49;;;;;;;0.73;0.40;;;;;;;;;;143732;572;46020;-87
2021/10/12 09:42:22;;;;;;;4.57;0.65;;;;;;;;;;143730;566;46020;-84
2021/10/12 09:45:14;;;;;;;3.12;0.75;;;;;;;;;;143731;619;46012;-85
2021/10/12 09:47:50;;;;;;;0.85;0.60;;;;;;;;;;143726;573;46019;-87
2021/10/12 09:50:18;;;;;;;1.67;0.82;;;;;;;;;;143735;582;46012;-87
2021/10/12 09:52:50;;;;;;;1.70;0.80;;;;;;;;;;143723;604;46020;-86
2021/10/12 09:55:21;;;;;;;3.62;0.43;;;;;;;;;;143734;643;45918;-85
2021/10/12 09:57:52;;;;;;;1.98;0.80;;;;;;;;;;143730;582;46018;-84
2021/10/12 10:00:19;;;;;;;2.97;0.35;;;;;;;;;;143731;619;46021;-86
2021/10/12 10:02:46;;;;;;;0.90;0.50;;;;;;;;;;143731;598;46021;-86
2021/10/12 10:05:17;;;;;;;0.77;0.50;;;;;;;;;;143730;586;46012;-84
2021/10/12 10:07:56;;;;;;;0.75;0.60;;;;;;;;;;143728;570;47018;-87
2021/10/12 10:10:35;;;;;;;0.80;0.43;;;;;;;;;;143732;621;46012;-88
2021/10/12 10:13:05;;;;;;;0.60;0.50;;;;;;;;;;143724;612;46048;-89
2021/10/12 10:15:36;;;;;;;2.90;0.70;;;;;;;;;;143726;650;47012;-89
2021/10/12 10:18:06;;;;;;;2.58;0.70;;;;;;;;;;143724;627;46039;-89
2021/10/12 10:20:34;;;;;;;1.35;0.70;;;;;;;;;;143731;617;46012;-89
2021/10/12 10:23:03;;;;;;;0.95;0.77;;;;;;;;;;143727;642;47020;-88
2021/10/12 10:25:38;;;;;;;1.23;0.73;;;;;;;;;;143728;639;46012;-88
2021/10/12 10:28:26;;;;;;;2.35;0.95;;;;;;;;;;143729;564;46018;-88
2021/10/12 10:31:05;;;;;;;1.42;0.70;;;;;;;;;;143732;572;46013;-87
2021/10/12 10:33:40;;;;;;;0.95;0.60;;;;;;;;;;143729;587;46016;-89
2021/10/12 10:36:15;;;;;;;4.53;0.50;;;;;;;;;;143729;575;46012;-88
2021/10/12 10:38:45;;;;;;;1.42;0.65;;;;;;;;;;143731;615;46019;-87
2021/10/12 10:41:43;;;;;;;0.70;0.45;;;;;;;;;;143730;581;46012;-88
2021/10/12 10:44:12;;;;;;;3.35;0.70;;;;;;;;;;143725;618;46020;-88
2021/10/12 10:46:42;;;;;;;0.60;0.40;;;;;;;;;;143732;581;46920;-86
2021/10/12 10:49:28;;;;;;;2.92;0.57;;;;;;;;;;143731;597;46018;-87
2021/10/12 10:52:02;;;;;;;4.00;0.50;;;;;;;;;;143731;580;46012;-88
2021/10/12 10:55:01;;;;;;;5.20;0.50;;;;;;;;;;143730;598;46021;-87
2021/10/12 10:57:37;;;;;;;2.17;0.40;;;;;;;;;;143729;583;46012;-88
2021/10/12 11:00:23;;;;;;;2.15;1.10;;;;;;;;;;143729;598;46018;-89
2021/10/12 11:02:51;;;;;;;2.42;0.98;;;;;;;;;;143730;659;46012;-86
2021/10/12 11:05:38;;;;;;;2.12;0.80;;;;;;;;;;143730;602;46018;-87
2021/10/12 11:08:32;;;;;;;2.62;0.70;;;;;;;;;;143732;574;46022;-86
2021/10/12 11:11:01;;;;;;;3.28;0.60;;;;;;;;;;143724;598;46014;-83
2021/10/12 11:13:38;;;;;;;0.70;0.55;;;;;;;;;;143729;763;46012;-86
2021/10/12 11:16:13;;;;;;;1.60;0.55;;;;;;;;;;143727;570;47020;-85
2021/10/12 11:18:42;;;;;;;0.75;0.60;;;;;;;;;;143729;606;46012;-85
2021/10/12 11:21:13;;;;;;;2.15;0.73;;;;;;;;;;143732;661;46014;-84
2021/10/12 11:23:48;;;;;;;1.62;1.08;;;;;;;;;;143733;625;46013;-86
2021/10/12 11:26:19;;;;;;;2.58;0.88;;;;;;;;;;143731;598;47020;-84
2021/10/12 11:28:53;;;;;;;2.25;1.10;;;;;;;;;;143730;597;46022;-85
2021/10/12 11:31:29;;;;;;;2.08;1.35;;;;;;;;;;143731;569;46019;-84
2021/10/12 11:33:59;;;;;;;1.42;0.80;;;;;;;;;;143730;627;46012;-88
2021/10/12 11:36:33;;;;;;;1.12;0.60;;;;;;;;;;143727;563;46018;-87
2021/10/12 11:39:08;;;;;;;4.82;0.95;;;;;;;;;;143730;566;46013;-88
2021/10/12 11:41:40;;;;;;;1.98;1.35;;;;;;;;;;143733;644;46018;-87
2021/10/12 11:44:19;;;;;;;3.05;0.82;;;;;;;;;;143732;576;47022;-87
2021/10/12 11:47:00;;;;;;;0.73;0.57;;;;;;;;;;143724;669;47019;-88
2021/10/12 11:49:47;;;;;;;1.45;1.35;;;;;;;;;;143730;572;46012;-88
2021/10/12 11:52:16;;;;;;;4.03;0.60;;;;;;;;;;143725;663;47018;-89
2021/10/12 11:54:43;;;;;;;0.80;0.50;;;;;;;;;;143731;565;46013;-87
2021/10/12 11:57:20;;;;;;;2.87;0.60;;;;;;;;;;143727;569;47020;-88
2021/10/12 11:59:50;;;;;;;1.52;0.70;;;;;;;;;;143730;807;46012;-87
2021/10/12 12:02:17;;;;;;;0.85;0.50;;;;;;;;;;143724;571;46019;-88
2021/10/12 12:04:50;;;;;;;4.75;0.85;;;;;;;;;;143729;650;46012;-89
2021/10/12 12:07:20;;;;;;;1.12;0.40;;;;;;;;;;143727;581;47020;-89
2021/10/12 12:09:47;;;;;;;2.72;0.50;;;;;;;;;;143731;582;46013;-88
2021/10/12 12:12:15;;;;;;;2.10;0.43;;;;;;;;;;143728;571;46018;-87
2021/10/12 12:14:45;;;;;;;2.83;0.68;;;;;;;;;;143732;657;46022;-87
2021/10/12 12:17:21;;;;;;;1.73;0.90;;;;;;;;;;143730;640;46021;-88
2021/10/12 12:20:21;;;;;;;3.87;1.00;;;;;;;;;;143732;590;46012;-88
2021/10/12 12:22:58;;;;;;;2.28;1.27;;;;;;;;;;143730;728;46042;-86
2021/10/12 12:25:28;;;;;;;5.35;1.42;;;;;;;;;;143732;609;46016;-89
2021/10/12 12:28:01;;;;;;;3.78;1.40;;;;;;;;;;143726;597;47014;-88
2021/10/12 12:30:54;;;;;;;2.40;1.05;;;;;;;;;;143731;609;46017;-91
2021/10/12 12:33:22;;;;;;;3.60;1.17;;;;;;;;;;143724;599;47014;-89
2021/10/12 12:35:52;;;;;;;2.45;1.23;;;;;;;;;;143733;574;46045;-86
2021/10/12 12:38:27;;;;;;;3.17;1.25;;;;;;;;;;143730;582;46019;-87
2021/10/12 12:40:58;;;;;;;3.90;1.50;;;;;;;;;;143728;578;46012;-89
2021/10/12 12:43:33;;;;;;;3.35;1.42;;;;;;;;;;143734;577;46018;-90
2021/10/12 12:46:10;;;;;;;5.85;1.52;;;;;;;;;;143735;566;46023;-89
2021/10/12 12:48:45;;;;;;;2.47;1.23;;;;;;;;;;143731;569;46020;-89
2021/10/12 12:51:14;;;;;;;1.70;1.23;;;;;;;;;;143730;563;46012;-89
2021/10/12 12:53:50;;;;;;;1.95;1.10;;;;;;;;;;143724;576;46019;-88
2021/10/12 12:56:20;;;;;;;4.87;1.58;;;;;;;;;;143730;565;46024;-87
2021/10/12 12:59:05;;;;;;;5.10;2.20;;;;;;;;;;143727;601;47018;-90
2021/10/12 13:01:34;;;;;;;3.72;0.80;;;;;;;;;;143731;587;46013;-87
2021/10/12 13:04:21;;;;;;;1.55;1.12;;;;;;;;;;143726;590;46018;-89
2021/10/12 13:07:07;;;;;;;;;;;;;;;;;;;;;
2021/10/12 13:09:36;;;;;;;3.08;0.98;;;;;;;;;;143731;593;46014;-86
2021/10/12 13:12:04;;;;;;;1.98;1.08;;;;;;;;;;143732;610;46022;-89
2021/10/12 13:14:33;;;;;;;2.97;1.08;;;;;;;;;;143728;574;47018;-89
2021/10/12 13:17:13;;;;;;;1.70;1.20;;;;;;;;;;143730;569;46023;-88
2021/10/12 13:19:41;;;;;;;2.00;1.20;;;;;;;;;;143725;587;47020;-88
2021/10/12 13:22:36;;;;;;;2.90;1.35;;;;;;;;;;143735;616;46012;-89
2021/10/12 13:25:05;;;;;;;5.32;1.50;;;;;;;;;;143730;582;47018;-88
2021/10/12 13:27:36;;;;;;;1.73;1.25;;;;;;;;;;143734;565;46012;-90
2021/10/12 13:30:04;;;;;;;3.22;1.65;;;;;;;;;;143732;614;46020;-88
2021/10/12 13:32:56;;;;;;;2.58;1.20;;;;;;;;;;143732;576;46012;-89
2021/10/12 13:35:24;;;;;;;3.08;1.08;;;;;;;;;;143730;577;46018;-86
2021/10/12 13:38:02;;;;;;;3.75;1.23;;;;;;;;;;143731;591;46012;-90
2021/10/12 13:40:36;;;;;;;2.92;0.88;;;;;;;;;;143730;614;46020;-89
2021/10/12 13:43:09;;;;;;;1.67;1.05;;;;;;;;;;143733;589;46012;-89
2021/10/12 13:45:37;;;;;;;2.30;1.12;;;;;;;;;;143725;579;46045;-89
2021/10/12 13:48:18;;;;;;;4.18;1.12;;;;;;;;;;143729;589;46020;-88
2021/10/12 13:50:50;;;;;;;2.67;1.00;;;;;;;;;;143731;595;46020;-88
2021/10/12 13:53:25;;;;;;;0.97;0.77;;;;;;;;;;143734;608;46013;-88
2021/10/12 13:55:58;;;;;;;1.37;0.93;;;;;;;;;;143732;577;46018;-89
2021/10/12 13:58:38;;;;;;;;;;;;;;;;;;;;;
2021/10/12 14:01:17;;;;;;;1.25;1.10;;;;;;;;;;143730;579;46014;-88
2021/10/12 14:04:02;;;;;;;0.95;0.60;;;;;;;;;;143732;564;46014;-88
2021/10/12 14:06:35;;;;;;;2.20;1.15;;;;;;;;;;143729;590;46018;-86
2021/10/12 14:09:07;;;;;;;4.93;0.90;;;;;;;;;;143733;585;46023;-89
2021/10/12 14:11:37;;;;;;;1.30;0.93;;;;;;;;;;143725;583;46020;-89
2021/10/12 14:14:09;;;;;;;1.45;0.70;;;;;;;;;;143732;579;46023;-90
2021/10/12 14:16:37;;;;;;;1.60;1.00;;;;;;;;;;143730;608;46018;-90
2021/10/12 14:19:07;;;;;;;1.92;0.88;;;;;;;;;;143734;627;46048;-88
2021/10/12 14:21:37;;;;;;;1.80;0.80;;;;;;;;;;143734;622;46020;-89
2021/10/12 14:24:14;;;;;;;2.15;0.90;;;;;;;;;;143729;618;46023;-90
2021/10/12 14:26:48;;;;;;;1.60;0.88;;;;;;;;;;143730;585;46018;-88
2021/10/12 14:29:15;;;;;;;1.75;1.08;;;;;;;;;;143733;602;46013;-89
2021/10/12 14:31:47;;;;;;;1.58;1.10;;;;;;;;;;143730;603;47018;-89
2021/10/12 14:34:18;;;;;;;3.17;0.98;;;;;;;;;;143731;569;46012;-86
2021/10/12 14:36:53;;;;;;;2.58;0.85;;;;;;;;;;143724;600;46044;-89
2021/10/12 14:39:48;;;;;;;0.98;0.57;;;;;;;;;;143733;569;46012;-87
2021/10/12 14:42:19;;;;;;;2.15;0.73;;;;;;;;;;143734;588;46022;-89
2021/10/12 14:44:47;;;;;;;1.77;0.55;;;;;;;;;;143731;609;46920;-87
2021/10/12 14:47:15;;;;;;;1.70;0.90;;;;;;;;;;143729;641;46018;-87
2021/10/12 14:49:44;;;;;;;1.60;0.60;;;;;;;;;;143732;570;46012;-87
2021/10/12 14:52:11;;;;;;;2.42;1.00;;;;;;;;;;143732;638;47020;-85
2021/10/12 14:54:41;;;;;;;0.90;0.70;;;;;;;;;;143731;570;46012;-87
2021/10/12 14:57:12;;;;;;;3.12;1.12;;;;;;;;;;143733;576;46014;-86
2021/10/12 14:59:39;;;;;;;2.90;1.40;;;;;;;;;;143730;577;47012;-87
2021/10/12 15:02:06;;;;;;;2.50;1.00;;;;;;;;;;143726;603;46018;-88
2021/10/12 15:04:34;;;;;;;3.22;1.05;;;;;;;;;;143732;628;46012;-85
2021/10/12 15:07:10;;;;;;;4.15;0.93;;;;;;;;;;143733;575;46012;-87
2021/10/12 15:09:38;;;;;;;1.80;1.05;;;;;;;;;;143732;591;46012;-87
2021/10/12 15:12:08;;;;;;;2.00;0.93;;;;;;;;;;143726;589;46033;-86
2021/10/12 15:14:38;;;;;;;3.67;1.00;;;;;;;;;;143731;607;46013;-87